sensor_id;sensor_type;location;lat;lon;timestamp;P1;durP1;ratioP1;P2;durP2;ratioP2
21822;SDS011;11074;48.596;9.238;2022-10-17T00:00:27;4.55;;;2.03;;
21822;SDS011;11074;48.596;9.238;2022-10-17T00:02:54;11.20;;;2.42;;
21822;SDS011;11074;48.596;9.238;2022-10-17T00:05:20;6.07;;;2.03;;
21822;SDS011;11074;48.596;9.238;2022-10-17T00:07:46;5.65;;;1.67;;
21822;SDS011;11074;48.596;9.238;2022-10-17T00:10:12;3.75;;;1.92;;
21822;SDS011;11074;48.596;9.238;2022-10-17T00:12:38;5.75;;;2.30;;
21822;SDS011;11074;48.596;9.238;2022-10-17T00:15:04;8.77;;;2.22;;
21822;SDS011;11074;48.596;9.238;2022-10-17T00:17:31;4.80;;;2.20;;
21822;SDS011;11074;48.596;9.238;2022-10-17T00:20:00;5.88;;;1.92;;
21822;SDS011;11074;48.596;9.238;2022-10-17T00:22:26;7.47;;;2.13;;
21822;SDS011;11074;48.596;9.238;2022-10-17T00:24:52;3.55;;;1.40;;
21822;SDS011;11074;48.596;9.238;2022-10-17T00:27:18;6.15;;;1.88;;
21822;SDS011;11074;48.596;9.238;2022-10-17T00:29:47;7.07;;;1.90;;
21822;SDS011;11074;48.596;9.238;2022-10-17T00:32:14;6.22;;;2.03;;
21822;SDS011;11074;48.596;9.238;2022-10-17T00:34:41;5.22;;;1.58;;
21822;SDS011;11074;48.596;9.238;2022-10-17T00:37:06;5.90;;;1.80;;
21822;SDS011;11074;48.596;9.238;2022-10-17T00:39:32;4.45;;;1.60;;
21822;SDS011;11074;48.596;9.238;2022-10-17T00:41:58;7.68;;;1.70;;
21822;SDS011;11074;48.596;9.238;2022-10-17T00:46:55;8.13;;;2.13;;
21822;SDS011;11074;48.596;9.238;2022-10-17T00:49:24;5.07;;;2.20;;
21822;SDS011;11074;48.596;9.238;2022-10-17T00:51:58;8.02;;;1.90;;
21822;SDS011;11074;48.596;9.238;2022-10-17T00:54:33;5.28;;;1.77;;
21822;SDS011;11074;48.596;9.238;2022-10-17T00:57:04;5.55;;;1.90;;
21822;SDS011;11074;48.596;9.238;2022-10-17T00:59:34;6.47;;;1.70;;
21822;SDS011;11074;48.596;9.238;2022-10-17T01:02:07;6.22;;;1.85;;
21822;SDS011;11074;48.596;9.238;2022-10-17T01:07:05;5.78;;;1.90;;
21822;SDS011;11074;48.596;9.238;2022-10-17T01:09:32;3.65;;;1.90;;
21822;SDS011;11074;48.596;9.238;2022-10-17T01:20:22;7.45;;;1.65;;
21822;SDS011;11074;48.596;9.238;2022-10-17T01:26:29;8.30;;;1.65;;
21822;SDS011;11074;48.596;9.238;2022-10-17T01:32:37;9.23;;;2.03;;
21822;SDS011;11074;48.596;9.238;2022-10-17T01:38:09;4.78;;;2.15;;
21822;SDS011;11074;48.596;9.238;2022-10-17T01:43:33;2.88;;;2.03;;
21822;SDS011;11074;48.596;9.238;2022-10-17T01:46:07;7.75;;;2.28;;
21822;SDS011;11074;48.596;9.238;2022-10-17T01:48:48;2.33;;;1.90;;
21822;SDS011;11074;48.596;9.238;2022-10-17T01:51:17;6.95;;;2.03;;
21822;SDS011;11074;48.596;9.238;2022-10-17T01:54:15;5.40;;;2.00;;
21822;SDS011;11074;48.596;9.238;2022-10-17T01:59:20;5.55;;;1.70;;
21822;SDS011;11074;48.596;9.238;2022-10-17T02:02:00;3.00;;;1.83;;
21822;SDS011;11074;48.596;9.238;2022-10-17T02:04:27;3.75;;;1.90;;
21822;SDS011;11074;48.596;9.238;2022-10-17T02:06:53;6.80;;;1.92;;
21822;SDS011;11074;48.596;9.238;2022-10-17T02:09:25;3.00;;;1.90;;
21822;SDS011;11074;48.596;9.238;2022-10-17T02:11:59;4.45;;;1.70;;
21822;SDS011;11074;48.596;9.238;2022-10-17T02:14:34;6.40;;;2.05;;
21822;SDS011;11074;48.596;9.238;2022-10-17T02:17:07;6.28;;;1.80;;
21822;SDS011;11074;48.596;9.238;2022-10-17T02:19:49;3.03;;;1.85;;
21822;SDS011;11074;48.596;9.238;2022-10-17T02:25:46;6.07;;;1.90;;
21822;SDS011;11074;48.596;9.238;2022-10-17T02:28:38;5.70;;;2.40;;
21822;SDS011;11074;48.596;9.238;2022-10-17T02:31:21;2.97;;;1.77;;
21822;SDS011;11074;48.596;9.238;2022-10-17T02:34:07;5.00;;;2.33;;
21822;SDS011;11074;48.596;9.238;2022-10-17T02:36:41;4.63;;;2.10;;
21822;SDS011;11074;48.596;9.238;2022-10-17T02:39:12;5.50;;;2.20;;
21822;SDS011;11074;48.596;9.238;2022-10-17T02:41:40;6.45;;;2.20;;
21822;SDS011;11074;48.596;9.238;2022-10-17T02:44:09;14.23;;;2.45;;
21822;SDS011;11074;48.596;9.238;2022-10-17T02:46:36;8.93;;;2.70;;
21822;SDS011;11074;48.596;9.238;2022-10-17T02:49:15;8.02;;;2.63;;
21822;SDS011;11074;48.596;9.238;2022-10-17T02:54:42;5.50;;;2.72;;
21822;SDS011;11074;48.596;9.238;2022-10-17T02:57:24;6.43;;;2.30;;
21822;SDS011;11074;48.596;9.238;2022-10-17T03:00:01;4.38;;;2.05;;
21822;SDS011;11074;48.596;9.238;2022-10-17T03:05:11;5.80;;;2.45;;
21822;SDS011;11074;48.596;9.238;2022-10-17T03:07:40;6.47;;;2.10;;
21822;SDS011;11074;48.596;9.238;2022-10-17T03:10:06;3.40;;;2.10;;
21822;SDS011;11074;48.596;9.238;2022-10-17T03:12:32;7.00;;;2.30;;
21822;SDS011;11074;48.596;9.238;2022-10-17T03:14:58;4.65;;;2.00;;
21822;SDS011;11074;48.596;9.238;2022-10-17T03:17:24;5.03;;;2.10;;
21822;SDS011;11074;48.596;9.238;2022-10-17T03:19:50;3.38;;;1.95;;
21822;SDS011;11074;48.596;9.238;2022-10-17T03:22:15;6.97;;;2.22;;
21822;SDS011;11074;48.596;9.238;2022-10-17T03:24:41;2.60;;;2.05;;
21822;SDS011;11074;48.596;9.238;2022-10-17T03:27:06;5.85;;;2.30;;
21822;SDS011;11074;48.596;9.238;2022-10-17T03:29:32;2.80;;;1.90;;
21822;SDS011;11074;48.596;9.238;2022-10-17T03:31:58;2.88;;;2.10;;
21822;SDS011;11074;48.596;9.238;2022-10-17T03:34:23;4.95;;;2.15;;
21822;SDS011;11074;48.596;9.238;2022-10-17T03:36:49;7.55;;;2.15;;
21822;SDS011;11074;48.596;9.238;2022-10-17T03:39:15;9.45;;;2.58;;
21822;SDS011;11074;48.596;9.238;2022-10-17T03:41:40;5.63;;;2.35;;
21822;SDS011;11074;48.596;9.238;2022-10-17T03:44:06;5.45;;;2.20;;
21822;SDS011;11074;48.596;9.238;2022-10-17T03:46:31;29.45;;;3.22;;
21822;SDS011;11074;48.596;9.238;2022-10-17T03:48:57;21.85;;;2.88;;
21822;SDS011;11074;48.596;9.238;2022-10-17T03:51:23;11.02;;;2.53;;
21822;SDS011;11074;48.596;9.238;2022-10-17T03:53:49;6.00;;;1.80;;
21822;SDS011;11074;48.596;9.238;2022-10-17T03:56:15;7.82;;;2.50;;
21822;SDS011;11074;48.596;9.238;2022-10-17T03:58:47;6.53;;;2.30;;
21822;SDS011;11074;48.596;9.238;2022-10-17T04:01:14;4.28;;;2.25;;
21822;SDS011;11074;48.596;9.238;2022-10-17T04:03:41;2.85;;;2.10;;
21822;SDS011;11074;48.596;9.238;2022-10-17T04:06:09;3.38;;;2.22;;
21822;SDS011;11074;48.596;9.238;2022-10-17T04:08:37;2.70;;;2.03;;
21822;SDS011;11074;48.596;9.238;2022-10-17T04:11:04;4.68;;;1.95;;
21822;SDS011;11074;48.596;9.238;2022-10-17T04:13:32;2.95;;;2.22;;
21822;SDS011;11074;48.596;9.238;2022-10-17T04:16:00;2.45;;;1.85;;
21822;SDS011;11074;48.596;9.238;2022-10-17T04:18:30;3.60;;;1.83;;
21822;SDS011;11074;48.596;9.238;2022-10-17T04:20:56;3.60;;;1.95;;
21822;SDS011;11074;48.596;9.238;2022-10-17T04:23:22;3.97;;;1.80;;
21822;SDS011;11074;48.596;9.238;2022-10-17T04:25:48;3.47;;;1.75;;
21822;SDS011;11074;48.596;9.238;2022-10-17T04:28:13;4.03;;;2.10;;
21822;SDS011;11074;48.596;9.238;2022-10-17T04:30:40;4.50;;;2.10;;
21822;SDS011;11074;48.596;9.238;2022-10-17T04:33:05;3.13;;;2.00;;
21822;SDS011;11074;48.596;9.238;2022-10-17T04:35:31;2.72;;;1.98;;
21822;SDS011;11074;48.596;9.238;2022-10-17T04:37:57;3.33;;;2.08;;
21822;SDS011;11074;48.596;9.238;2022-10-17T04:40:23;8.25;;;2.78;;
21822;SDS011;11074;48.596;9.238;2022-10-17T04:42:51;5.53;;;2.53;;
21822;SDS011;11074;48.596;9.238;2022-10-17T04:45:17;3.33;;;2.00;;
21822;SDS011;11074;48.596;9.238;2022-10-17T04:47:43;4.68;;;2.70;;
21822;SDS011;11074;48.596;9.238;2022-10-17T04:50:08;5.40;;;2.92;;
21822;SDS011;11074;48.596;9.238;2022-10-17T04:52:34;7.80;;;2.92;;
21822;SDS011;11074;48.596;9.238;2022-10-17T04:55:01;5.28;;;3.50;;
21822;SDS011;11074;48.596;9.238;2022-10-17T04:57:29;7.97;;;3.40;;
21822;SDS011;11074;48.596;9.238;2022-10-17T04:59:59;5.63;;;3.08;;
21822;SDS011;11074;48.596;9.238;2022-10-17T05:02:25;3.60;;;2.83;;
21822;SDS011;11074;48.596;9.238;2022-10-17T05:04:51;3.60;;;2.40;;
21822;SDS011;11074;48.596;9.238;2022-10-17T05:07:17;4.20;;;2.05;;
21822;SDS011;11074;48.596;9.238;2022-10-17T05:09:42;3.70;;;2.47;;
21822;SDS011;11074;48.596;9.238;2022-10-17T05:12:08;4.57;;;2.30;;
21822;SDS011;11074;48.596;9.238;2022-10-17T05:14:34;4.35;;;2.35;;
21822;SDS011;11074;48.596;9.238;2022-10-17T05:16:59;3.80;;;2.30;;
21822;SDS011;11074;48.596;9.238;2022-10-17T05:19:25;3.60;;;2.00;;
21822;SDS011;11074;48.596;9.238;2022-10-17T05:21:51;4.72;;;1.88;;
21822;SDS011;11074;48.596;9.238;2022-10-17T05:24:16;7.57;;;2.13;;
21822;SDS011;11074;48.596;9.238;2022-10-17T05:26:42;2.25;;;1.80;;
21822;SDS011;11074;48.596;9.238;2022-10-17T05:29:08;1.70;;;1.60;;
21822;SDS011;11074;48.596;9.238;2022-10-17T05:31:34;4.20;;;1.67;;
21822;SDS011;11074;48.596;9.238;2022-10-17T05:34:00;2.92;;;1.83;;
21822;SDS011;11074;48.596;9.238;2022-10-17T05:36:27;3.10;;;2.20;;
21822;SDS011;11074;48.596;9.238;2022-10-17T05:38:53;4.85;;;2.15;;
21822;SDS011;11074;48.596;9.238;2022-10-17T05:41:19;2.22;;;1.80;;
21822;SDS011;11074;48.596;9.238;2022-10-17T05:43:45;5.78;;;2.20;;
21822;SDS011;11074;48.596;9.238;2022-10-17T05:46:11;3.55;;;1.92;;
21822;SDS011;11074;48.596;9.238;2022-10-17T05:48:37;3.60;;;1.83;;
21822;SDS011;11074;48.596;9.238;2022-10-17T05:51:04;9.45;;;2.13;;
21822;SDS011;11074;48.596;9.238;2022-10-17T05:53:34;2.72;;;1.70;;
21822;SDS011;11074;48.596;9.238;2022-10-17T05:56:07;5.20;;;2.13;;
21822;SDS011;11074;48.596;9.238;2022-10-17T05:58:35;5.35;;;2.00;;
21822;SDS011;11074;48.596;9.238;2022-10-17T06:01:05;4.95;;;2.10;;
21822;SDS011;11074;48.596;9.238;2022-10-17T06:03:31;2.30;;;1.90;;
21822;SDS011;11074;48.596;9.238;2022-10-17T06:06:04;2.10;;;1.67;;
21822;SDS011;11074;48.596;9.238;2022-10-17T06:08:32;2.78;;;2.03;;
21822;SDS011;11074;48.596;9.238;2022-10-17T06:10:58;3.85;;;2.00;;
21822;SDS011;11074;48.596;9.238;2022-10-17T06:13:24;3.97;;;2.08;;
21822;SDS011;11074;48.596;9.238;2022-10-17T06:15:50;2.42;;;1.90;;
21822;SDS011;11074;48.596;9.238;2022-10-17T06:18:16;4.57;;;2.00;;
21822;SDS011;11074;48.596;9.238;2022-10-17T06:20:42;5.15;;;2.08;;
21822;SDS011;11074;48.596;9.238;2022-10-17T06:23:08;3.70;;;1.80;;
21822;SDS011;11074;48.596;9.238;2022-10-17T06:25:33;3.42;;;1.88;;
21822;SDS011;11074;48.596;9.238;2022-10-17T06:27:59;2.85;;;2.10;;
21822;SDS011;11074;48.596;9.238;2022-10-17T06:30:25;3.72;;;2.25;;
21822;SDS011;11074;48.596;9.238;2022-10-17T06:32:51;5.38;;;2.00;;
21822;SDS011;11074;48.596;9.238;2022-10-17T06:35:18;2.85;;;2.08;;
21822;SDS011;11074;48.596;9.238;2022-10-17T06:37:44;3.97;;;2.10;;
21822;SDS011;11074;48.596;9.238;2022-10-17T06:40:10;2.55;;;2.00;;
21822;SDS011;11074;48.596;9.238;2022-10-17T06:42:39;2.80;;;2.00;;
21822;SDS011;11074;48.596;9.238;2022-10-17T06:45:05;4.72;;;2.40;;
21822;SDS011;11074;48.596;9.238;2022-10-17T06:47:32;7.55;;;2.50;;
21822;SDS011;11074;48.596;9.238;2022-10-17T06:49:59;4.07;;;2.30;;
21822;SDS011;11074;48.596;9.238;2022-10-17T06:52:24;2.70;;;2.20;;
21822;SDS011;11074;48.596;9.238;2022-10-17T06:54:50;7.72;;;2.47;;
21822;SDS011;11074;48.596;9.238;2022-10-17T06:57:16;3.90;;;2.28;;
21822;SDS011;11074;48.596;9.238;2022-10-17T06:59:42;4.93;;;2.53;;
21822;SDS011;11074;48.596;9.238;2022-10-17T07:02:08;5.65;;;3.20;;
21822;SDS011;11074;48.596;9.238;2022-10-17T07:04:35;4.57;;;3.40;;
21822;SDS011;11074;48.596;9.238;2022-10-17T07:07:01;7.32;;;3.33;;
21822;SDS011;11074;48.596;9.238;2022-10-17T07:09:27;6.05;;;2.58;;
21822;SDS011;11074;48.596;9.238;2022-10-17T07:11:55;5.07;;;2.70;;
21822;SDS011;11074;48.596;9.238;2022-10-17T07:14:21;5.90;;;2.70;;
21822;SDS011;11074;48.596;9.238;2022-10-17T07:16:47;6.72;;;2.65;;
21822;SDS011;11074;48.596;9.238;2022-10-17T07:19:13;4.40;;;2.70;;
21822;SDS011;11074;48.596;9.238;2022-10-17T07:21:39;5.75;;;2.80;;
21822;SDS011;11074;48.596;9.238;2022-10-17T07:24:05;4.57;;;2.72;;
21822;SDS011;11074;48.596;9.238;2022-10-17T07:26:31;9.63;;;2.38;;
21822;SDS011;11074;48.596;9.238;2022-10-17T07:28:57;4.15;;;2.33;;
21822;SDS011;11074;48.596;9.238;2022-10-17T07:31:23;5.53;;;2.50;;
21822;SDS011;11074;48.596;9.238;2022-10-17T07:33:49;4.78;;;2.50;;
21822;SDS011;11074;48.596;9.238;2022-10-17T07:36:16;6.80;;;2.45;;
21822;SDS011;11074;48.596;9.238;2022-10-17T07:38:42;6.22;;;2.70;;
21822;SDS011;11074;48.596;9.238;2022-10-17T07:41:09;7.82;;;2.90;;
21822;SDS011;11074;48.596;9.238;2022-10-17T07:43:37;6.43;;;2.78;;
21822;SDS011;11074;48.596;9.238;2022-10-17T07:46:04;6.10;;;2.90;;
21822;SDS011;11074;48.596;9.238;2022-10-17T07:48:30;5.60;;;2.90;;
21822;SDS011;11074;48.596;9.238;2022-10-17T07:50:56;6.50;;;3.03;;
21822;SDS011;11074;48.596;9.238;2022-10-17T07:53:22;6.80;;;3.00;;
21822;SDS011;11074;48.596;9.238;2022-10-17T07:55:47;6.65;;;3.28;;
21822;SDS011;11074;48.596;9.238;2022-10-17T07:58:13;6.50;;;2.88;;
21822;SDS011;11074;48.596;9.238;2022-10-17T08:00:40;7.95;;;3.17;;
21822;SDS011;11074;48.596;9.238;2022-10-17T08:03:06;6.55;;;3.00;;
21822;SDS011;11074;48.596;9.238;2022-10-17T08:05:32;6.82;;;3.17;;
21822;SDS011;11074;48.596;9.238;2022-10-17T08:07:58;8.43;;;3.10;;
21822;SDS011;11074;48.596;9.238;2022-10-17T08:10:24;7.97;;;3.40;;
21822;SDS011;11074;48.596;9.238;2022-10-17T08:12:52;6.50;;;3.40;;
21822;SDS011;11074;48.596;9.238;2022-10-17T08:15:19;7.55;;;3.08;;
21822;SDS011;11074;48.596;9.238;2022-10-17T08:17:44;8.40;;;2.90;;
21822;SDS011;11074;48.596;9.238;2022-10-17T08:20:10;8.10;;;3.20;;
21822;SDS011;11074;48.596;9.238;2022-10-17T08:22:36;4.57;;;2.90;;
21822;SDS011;11074;48.596;9.238;2022-10-17T08:25:02;3.55;;;2.70;;
21822;SDS011;11074;48.596;9.238;2022-10-17T08:27:28;4.68;;;3.03;;
21822;SDS011;11074;48.596;9.238;2022-10-17T08:29:56;4.78;;;2.80;;
21822;SDS011;11074;48.596;9.238;2022-10-17T08:32:23;5.05;;;2.92;;
21822;SDS011;11074;48.596;9.238;2022-10-17T08:34:55;4.65;;;2.88;;
21822;SDS011;11074;48.596;9.238;2022-10-17T08:37:24;5.45;;;2.72;;
21822;SDS011;11074;48.596;9.238;2022-10-17T08:39:50;6.60;;;2.38;;
21822;SDS011;11074;48.596;9.238;2022-10-17T08:42:25;5.43;;;2.47;;
21822;SDS011;11074;48.596;9.238;2022-10-17T08:48:01;5.57;;;3.00;;
21822;SDS011;11074;48.596;9.238;2022-10-17T08:54:11;4.18;;;2.50;;
21822;SDS011;11074;48.596;9.238;2022-10-17T08:56:48;5.97;;;2.75;;
21822;SDS011;11074;48.596;9.238;2022-10-17T08:59:26;6.50;;;2.53;;
21822;SDS011;11074;48.596;9.238;2022-10-17T09:24:14;4.60;;;2.40;;
21822;SDS011;11074;48.596;9.238;2022-10-17T09:26:49;3.13;;;2.00;;
21822;SDS011;11074;48.596;9.238;2022-10-17T09:29:25;3.88;;;2.08;;
21822;SDS011;11074;48.596;9.238;2022-10-17T09:34:35;3.55;;;2.15;;
21822;SDS011;11074;48.596;9.238;2022-10-17T09:37:00;6.57;;;2.70;;
21822;SDS011;11074;48.596;9.238;2022-10-17T09:39:27;5.78;;;2.50;;
21822;SDS011;11074;48.596;9.238;2022-10-17T09:41:58;8.63;;;2.38;;
21822;SDS011;11074;48.596;9.238;2022-10-17T09:47:11;5.47;;;2.65;;
21822;SDS011;11074;48.596;9.238;2022-10-17T09:49:46;8.35;;;2.50;;
21822;SDS011;11074;48.596;9.238;2022-10-17T09:52:17;4.38;;;2.30;;
21822;SDS011;11074;48.596;9.238;2022-10-17T09:55:06;3.58;;;2.08;;
21822;SDS011;11074;48.596;9.238;2022-10-17T09:58:06;3.05;;;1.92;;
21822;SDS011;11074;48.596;9.238;2022-10-17T10:00:35;3.95;;;1.70;;
21822;SDS011;11074;48.596;9.238;2022-10-17T10:03:13;6.93;;;2.30;;
21822;SDS011;11074;48.596;9.238;2022-10-17T10:08:26;2.78;;;1.90;;
21822;SDS011;11074;48.596;9.238;2022-10-17T10:11:01;5.30;;;2.13;;
21822;SDS011;11074;48.596;9.238;2022-10-17T10:13:33;3.70;;;1.75;;
21822;SDS011;11074;48.596;9.238;2022-10-17T10:16:42;3.55;;;2.30;;
21822;SDS011;11074;48.596;9.238;2022-10-17T10:18:56;3.40;;;2.15;;
21822;SDS011;11074;48.596;9.238;2022-10-17T10:21:23;5.38;;;2.10;;
21822;SDS011;11074;48.596;9.238;2022-10-17T10:26:24;2.70;;;1.70;;
21822;SDS011;11074;48.596;9.238;2022-10-17T10:29:01;3.08;;;1.70;;
21822;SDS011;11074;48.596;9.238;2022-10-17T10:31:42;4.25;;;2.03;;
21822;SDS011;11074;48.596;9.238;2022-10-17T10:34:27;2.83;;;1.70;;
21822;SDS011;11074;48.596;9.238;2022-10-17T10:36:56;3.50;;;1.83;;
21822;SDS011;11074;48.596;9.238;2022-10-17T10:39:30;4.18;;;1.95;;
21822;SDS011;11074;48.596;9.238;2022-10-17T10:42:28;4.68;;;2.10;;
21822;SDS011;11074;48.596;9.238;2022-10-17T10:45:16;3.60;;;1.85;;
21822;SDS011;11074;48.596;9.238;2022-10-17T10:53:12;2.88;;;1.40;;
21822;SDS011;11074;48.596;9.238;2022-10-17T10:56:36;4.75;;;2.00;;
21822;SDS011;11074;48.596;9.238;2022-10-17T11:04:44;5.45;;;1.77;;
21822;SDS011;11074;48.596;9.238;2022-10-17T11:07:24;3.60;;;1.90;;
21822;SDS011;11074;48.596;9.238;2022-10-17T11:12:56;5.97;;;1.92;;
21822;SDS011;11074;48.596;9.238;2022-10-17T11:15:34;5.38;;;2.20;;
21822;SDS011;11074;48.596;9.238;2022-10-17T11:18:34;3.60;;;1.85;;
21822;SDS011;11074;48.596;9.238;2022-10-17T11:24:34;3.42;;;1.90;;
21822;SDS011;11074;48.596;9.238;2022-10-17T11:27:08;6.90;;;1.50;;
21822;SDS011;11074;48.596;9.238;2022-10-17T11:29:40;2.17;;;1.58;;
21822;SDS011;11074;48.596;9.238;2022-10-17T11:35:02;4.40;;;1.75;;
21822;SDS011;11074;48.596;9.238;2022-10-17T11:37:40;5.22;;;1.70;;
21822;SDS011;11074;48.596;9.238;2022-10-17T11:40:34;3.22;;;1.77;;
21822;SDS011;11074;48.596;9.238;2022-10-17T11:43:09;1.67;;;1.25;;
21822;SDS011;11074;48.596;9.238;2022-10-17T11:45:50;4.22;;;1.80;;
21822;SDS011;11074;48.596;9.238;2022-10-17T11:48:25;3.38;;;1.67;;
21822;SDS011;11074;48.596;9.238;2022-10-17T11:51:17;2.42;;;1.65;;
21822;SDS011;11074;48.596;9.238;2022-10-17T11:56:21;6.40;;;1.73;;
21822;SDS011;11074;48.596;9.238;2022-10-17T12:05:26;6.15;;;1.70;;
21822;SDS011;11074;48.596;9.238;2022-10-17T12:11:09;5.93;;;1.48;;
21822;SDS011;11074;48.596;9.238;2022-10-17T12:13:53;9.43;;;1.90;;
21822;SDS011;11074;48.596;9.238;2022-10-17T12:21:27;13.35;;;2.33;;
21822;SDS011;11074;48.596;9.238;2022-10-17T12:24:30;11.23;;;1.85;;
21822;SDS011;11074;48.596;9.238;2022-10-17T12:27:39;2.88;;;1.30;;
21822;SDS011;11074;48.596;9.238;2022-10-17T12:33:01;4.38;;;1.30;;
21822;SDS011;11074;48.596;9.238;2022-10-17T12:35:50;7.03;;;1.83;;
21822;SDS011;11074;48.596;9.238;2022-10-17T12:55:11;7.63;;;1.50;;
21822;SDS011;11074;48.596;9.238;2022-10-17T12:57:55;5.53;;;1.50;;
21822;SDS011;11074;48.596;9.238;2022-10-17T13:03:25;3.75;;;1.63;;
21822;SDS011;11074;48.596;9.238;2022-10-17T13:06:01;2.05;;;1.20;;
21822;SDS011;11074;48.596;9.238;2022-10-17T13:11:01;3.78;;;1.30;;
21822;SDS011;11074;48.596;9.238;2022-10-17T13:16:29;5.00;;;1.35;;
21822;SDS011;11074;48.596;9.238;2022-10-17T13:18:59;2.58;;;1.15;;
21822;SDS011;11074;48.596;9.238;2022-10-17T13:21:27;2.25;;;1.10;;
21822;SDS011;11074;48.596;9.238;2022-10-17T13:23:54;4.35;;;1.02;;
21822;SDS011;11074;48.596;9.238;2022-10-17T13:26:24;3.97;;;1.02;;
21822;SDS011;11074;48.596;9.238;2022-10-17T13:29:09;3.75;;;1.38;;
21822;SDS011;11074;48.596;9.238;2022-10-17T13:31:38;2.00;;;0.95;;
21822;SDS011;11074;48.596;9.238;2022-10-17T13:34:18;7.18;;;1.40;;
21822;SDS011;11074;48.596;9.238;2022-10-17T13:36:49;3.97;;;1.35;;
21822;SDS011;11074;48.596;9.238;2022-10-17T13:39:26;4.90;;;1.50;;
21822;SDS011;11074;48.596;9.238;2022-10-17T13:41:57;4.05;;;1.30;;
21822;SDS011;11074;48.596;9.238;2022-10-17T13:44:24;4.20;;;1.20;;
21822;SDS011;11074;48.596;9.238;2022-10-17T13:46:56;5.95;;;1.40;;
21822;SDS011;11074;48.596;9.238;2022-10-17T13:49:31;13.80;;;1.83;;
21822;SDS011;11074;48.596;9.238;2022-10-17T13:52:12;3.42;;;1.08;;
21822;SDS011;11074;48.596;9.238;2022-10-17T13:54:44;1.88;;;1.20;;
21822;SDS011;11074;48.596;9.238;2022-10-17T13:57:22;3.60;;;0.90;;
21822;SDS011;11074;48.596;9.238;2022-10-17T13:59:55;2.25;;;1.10;;
21822;SDS011;11074;48.596;9.238;2022-10-17T14:02:30;5.93;;;1.08;;
21822;SDS011;11074;48.596;9.238;2022-10-17T14:04:59;4.55;;;1.20;;
21822;SDS011;11074;48.596;9.238;2022-10-17T14:07:32;3.80;;;1.20;;
21822;SDS011;11074;48.596;9.238;2022-10-17T14:10:16;2.53;;;1.10;;
21822;SDS011;11074;48.596;9.238;2022-10-17T14:12:54;5.65;;;1.55;;
21822;SDS011;11074;48.596;9.238;2022-10-17T14:15:23;4.38;;;1.30;;
21822;SDS011;11074;48.596;9.238;2022-10-17T14:17:59;1.92;;;1.10;;
21822;SDS011;11074;48.596;9.238;2022-10-17T14:20:31;5.07;;;1.20;;
21822;SDS011;11074;48.596;9.238;2022-10-17T14:22:59;1.75;;;1.00;;
21822;SDS011;11074;48.596;9.238;2022-10-17T14:25:32;4.45;;;1.33;;
21822;SDS011;11074;48.596;9.238;2022-10-17T14:28:02;2.78;;;1.15;;
21822;SDS011;11074;48.596;9.238;2022-10-17T14:35:50;3.97;;;1.30;;
21822;SDS011;11074;48.596;9.238;2022-10-17T14:38:19;4.28;;;1.25;;
21822;SDS011;11074;48.596;9.238;2022-10-17T14:40:55;2.67;;;1.30;;
21822;SDS011;11074;48.596;9.238;2022-10-17T14:43:28;3.13;;;1.08;;
21822;SDS011;11074;48.596;9.238;2022-10-17T14:45:58;3.10;;;1.20;;
21822;SDS011;11074;48.596;9.238;2022-10-17T14:48:25;2.80;;;1.10;;
21822;SDS011;11074;48.596;9.238;2022-10-17T14:51:12;4.65;;;1.27;;
21822;SDS011;11074;48.596;9.238;2022-10-17T14:53:43;1.90;;;1.30;;
21822;SDS011;11074;48.596;9.238;2022-10-17T14:56:26;4.80;;;1.83;;
21822;SDS011;11074;48.596;9.238;2022-10-17T14:59:13;4.68;;;1.65;;
21822;SDS011;11074;48.596;9.238;2022-10-17T15:01:41;4.32;;;1.90;;
21822;SDS011;11074;48.596;9.238;2022-10-17T15:04:07;7.38;;;1.70;;
21822;SDS011;11074;48.596;9.238;2022-10-17T15:06:34;10.23;;;1.95;;
21822;SDS011;11074;48.596;9.238;2022-10-17T15:09:01;8.32;;;1.70;;
21822;SDS011;11074;48.596;9.238;2022-10-17T15:11:27;5.70;;;2.03;;
21822;SDS011;11074;48.596;9.238;2022-10-17T15:13:55;6.95;;;1.70;;
21822;SDS011;11074;48.596;9.238;2022-10-17T15:16:22;5.97;;;2.05;;
21822;SDS011;11074;48.596;9.238;2022-10-17T15:18:50;7.20;;;1.92;;
21822;SDS011;11074;48.596;9.238;2022-10-17T15:21:19;5.30;;;1.83;;
21822;SDS011;11074;48.596;9.238;2022-10-17T15:23:47;6.82;;;1.92;;
21822;SDS011;11074;48.596;9.238;2022-10-17T15:26:14;5.18;;;1.80;;
21822;SDS011;11074;48.596;9.238;2022-10-17T15:28:43;5.65;;;1.90;;
21822;SDS011;11074;48.596;9.238;2022-10-17T15:31:12;7.78;;;2.10;;
21822;SDS011;11074;48.596;9.238;2022-10-17T15:33:41;8.52;;;2.00;;
21822;SDS011;11074;48.596;9.238;2022-10-17T15:36:17;5.05;;;1.90;;
21822;SDS011;11074;48.596;9.238;2022-10-17T15:38:45;6.45;;;2.10;;
21822;SDS011;11074;48.596;9.238;2022-10-17T15:41:12;6.70;;;2.28;;
21822;SDS011;11074;48.596;9.238;2022-10-17T15:43:38;6.32;;;2.45;;
21822;SDS011;11074;48.596;9.238;2022-10-17T15:46:08;8.93;;;2.15;;
21822;SDS011;11074;48.596;9.238;2022-10-17T15:48:43;8.90;;;2.22;;
21822;SDS011;11074;48.596;9.238;2022-10-17T15:51:09;3.97;;;1.67;;
21822;SDS011;11074;48.596;9.238;2022-10-17T15:53:34;11.45;;;2.50;;
21822;SDS011;11074;48.596;9.238;2022-10-17T15:56:01;6.30;;;2.35;;
21822;SDS011;11074;48.596;9.238;2022-10-17T15:58:31;6.15;;;2.20;;
21822;SDS011;11074;48.596;9.238;2022-10-17T16:01:05;7.60;;;2.45;;
21822;SDS011;11074;48.596;9.238;2022-10-17T16:03:31;5.75;;;2.40;;
21822;SDS011;11074;48.596;9.238;2022-10-17T16:05:58;10.75;;;2.30;;
21822;SDS011;11074;48.596;9.238;2022-10-17T16:08:24;9.75;;;2.35;;
21822;SDS011;11074;48.596;9.238;2022-10-17T16:10:50;5.88;;;2.13;;
21822;SDS011;11074;48.596;9.238;2022-10-17T16:13:17;9.50;;;2.00;;
21822;SDS011;11074;48.596;9.238;2022-10-17T16:15:47;8.80;;;2.22;;
21822;SDS011;11074;48.596;9.238;2022-10-17T16:18:13;3.05;;;2.13;;
21822;SDS011;11074;48.596;9.238;2022-10-17T16:20:39;4.10;;;2.13;;
21822;SDS011;11074;48.596;9.238;2022-10-17T16:23:04;6.22;;;2.58;;
21822;SDS011;11074;48.596;9.238;2022-10-17T16:25:32;8.93;;;2.38;;
21822;SDS011;11074;48.596;9.238;2022-10-17T16:27:58;6.65;;;2.60;;
21822;SDS011;11074;48.596;9.238;2022-10-17T16:30:26;8.02;;;2.25;;
21822;SDS011;11074;48.596;9.238;2022-10-17T16:32:54;7.00;;;2.45;;
21822;SDS011;11074;48.596;9.238;2022-10-17T16:35:21;8.63;;;2.00;;
21822;SDS011;11074;48.596;9.238;2022-10-17T16:37:50;6.40;;;2.22;;
21822;SDS011;11074;48.596;9.238;2022-10-17T16:40:16;9.05;;;2.75;;
21822;SDS011;11074;48.596;9.238;2022-10-17T16:42:42;9.82;;;2.53;;
21822;SDS011;11074;48.596;9.238;2022-10-17T16:45:09;5.07;;;2.80;;
21822;SDS011;11074;48.596;9.238;2022-10-17T16:47:42;9.48;;;2.78;;
21822;SDS011;11074;48.596;9.238;2022-10-17T16:50:08;8.73;;;2.90;;
21822;SDS011;11074;48.596;9.238;2022-10-17T16:52:34;5.45;;;2.50;;
21822;SDS011;11074;48.596;9.238;2022-10-17T16:55:00;9.93;;;2.67;;
21822;SDS011;11074;48.596;9.238;2022-10-17T16:57:25;5.50;;;2.28;;
21822;SDS011;11074;48.596;9.238;2022-10-17T16:59:51;7.80;;;2.63;;
21822;SDS011;11074;48.596;9.238;2022-10-17T17:02:17;9.88;;;2.70;;
21822;SDS011;11074;48.596;9.238;2022-10-17T17:04:43;7.00;;;2.50;;
21822;SDS011;11074;48.596;9.238;2022-10-17T17:07:09;9.27;;;2.65;;
21822;SDS011;11074;48.596;9.238;2022-10-17T17:09:35;9.45;;;2.58;;
21822;SDS011;11074;48.596;9.238;2022-10-17T17:12:00;8.30;;;3.30;;
21822;SDS011;11074;48.596;9.238;2022-10-17T17:14:26;7.72;;;3.58;;
21822;SDS011;11074;48.596;9.238;2022-10-17T17:16:52;10.68;;;3.47;;
21822;SDS011;11074;48.596;9.238;2022-10-17T17:19:17;8.32;;;3.10;;
21822;SDS011;11074;48.596;9.238;2022-10-17T17:21:44;5.72;;;2.28;;
21822;SDS011;11074;48.596;9.238;2022-10-17T17:24:15;7.97;;;3.10;;
21822;SDS011;11074;48.596;9.238;2022-10-17T17:26:44;7.57;;;2.90;;
21822;SDS011;11074;48.596;9.238;2022-10-17T17:29:14;4.45;;;2.67;;
21822;SDS011;11074;48.596;9.238;2022-10-17T17:31:40;6.93;;;2.50;;
21822;SDS011;11074;48.596;9.238;2022-10-17T17:34:06;5.25;;;3.30;;